aviador You're here:

GMMN Decoded Metar

CASABLANCA in MOROCCO
Report Time2017-11-20 22:30:00
UTC Time2017-11-20 22:55:49
Flight Rules vfr VFR
Wind140° at 05 kt
W.Decomp.*RWY 17: 4.4 kt HW 2.3 kt LCW
W.Rank140° ranks 24
Current wind is above 140° avg. (4.0)
Visibility9999 m
Phenomena:N/A
Clouds:N/A
Expected CloudBase > 2,800 ft AGL from Temp-Dew spread
CeilingNone
Temp12°C (ISA -2)
Dew Point05°C (63% RH)
AAT9.1°C
QNH1021 hPa
Density Alt331 ft
Elevation676 ft
Report Wrong Elevation
Raw Report
GMMN 202230Z 14005KT CAVOK 12/05 Q1021 NOSIG=

Extra information for GMMN:More info

Metar Taf Metar & Taf Last 4 Metars F.Rules Stats Wind Profile Meteogram Temp Stats Airport Information Weather charts Add Link Nearby VenuesMetar ALERT Operation Metar Decoded Social comments